createdAt,value
2019-02-07T00:00:19.134Z,99.60
2019-02-07T00:02:47.556Z,99.60
2019-02-07T00:05:16.522Z,99.70
2019-02-07T00:07:44.982Z,99.70
2019-02-07T00:10:16.494Z,99.90
2019-02-07T00:12:45.159Z,99.90
2019-02-07T00:15:15.551Z,99.90
2019-02-07T00:17:44.037Z,99.90
2019-02-07T00:20:19.845Z,99.90
2019-02-07T00:22:48.538Z,99.90
2019-02-07T00:25:16.961Z,99.90
2019-02-07T00:27:45.385Z,99.90
2019-02-07T00:30:21.094Z,99.90
2019-02-07T00:32:49.791Z,99.90
2019-02-07T00:35:18.455Z,99.90
2019-02-07T00:37:47.232Z,99.90
2019-02-07T00:40:18.162Z,99.90
2019-02-07T00:42:47.017Z,99.90
2019-02-07T00:45:16.890Z,99.80
2019-02-07T00:47:45.309Z,99.80
2019-02-07T00:50:15.938Z,99.90
2019-02-07T00:52:44.507Z,99.90
2019-02-07T00:55:17.869Z,99.90
2019-02-07T00:57:46.678Z,99.90
2019-02-07T01:00:23.946Z,99.90
2019-02-07T01:02:52.614Z,99.90
2019-02-07T01:05:22.991Z,99.90
2019-02-07T01:07:52.057Z,99.90
2019-02-07T01:10:24.086Z,99.90
2019-02-07T01:12:52.578Z,99.90
2019-02-07T01:15:22.041Z,99.90
2019-02-07T01:17:50.722Z,99.90
2019-02-07T01:20:19.273Z,99.90
2019-02-07T01:22:47.999Z,99.90
2019-02-07T01:25:19.949Z,99.90
2019-02-07T01:27:48.878Z,99.90
2019-02-07T01:30:20.494Z,99.90
2019-02-07T01:32:49.420Z,99.80
2019-02-07T01:35:18.009Z,99.90
2019-02-07T01:37:46.573Z,99.90
2019-02-07T01:40:17.406Z,99.90
2019-02-07T01:42:46.236Z,99.90
2019-02-07T01:45:18.718Z,99.90
2019-02-07T01:47:47.213Z,99.90
2019-02-07T01:50:17.934Z,99.90
2019-02-07T01:52:48.268Z,99.90
2019-02-07T01:55:17.024Z,99.90
2019-02-07T01:57:45.821Z,99.90
2019-02-07T02:00:16.817Z,99.90
2019-02-07T02:02:45.325Z,99.90
2019-02-07T02:05:15.482Z,99.90
2019-02-07T02:07:44.792Z,99.90
2019-02-07T02:10:19.289Z,99.90
2019-02-07T02:12:47.711Z,99.90
2019-02-07T02:15:24.640Z,99.90
2019-02-07T02:17:49.563Z,99.90
2019-02-07T02:20:20.909Z,99.90
2019-02-07T02:22:49.617Z,99.90
2019-02-07T02:25:18.170Z,99.90
2019-02-07T02:27:46.886Z,99.90
2019-02-07T02:30:24.367Z,99.90
2019-02-07T02:32:52.888Z,99.90
2019-02-07T02:35:21.789Z,99.90
2019-02-07T02:37:50.222Z,99.90
2019-02-07T02:40:19.112Z,99.90
2019-02-07T02:42:47.826Z,99.90
2019-02-07T02:45:18.583Z,99.90
2019-02-07T02:47:47.178Z,99.90
2019-02-07T02:50:17.998Z,99.90
2019-02-07T02:52:46.963Z,99.90
2019-02-07T02:55:20.379Z,99.90
2019-02-07T02:57:49.049Z,99.90
2019-02-07T03:00:19.350Z,99.90
2019-02-07T03:02:58.467Z,99.90
2019-02-07T03:05:47.340Z,99.90
2019-02-07T03:08:23.664Z,99.90
2019-02-07T03:11:10.155Z,99.90
2019-02-07T03:13:40.299Z,99.90
2019-02-07T03:16:13.342Z,99.90
2019-02-07T03:19:00.269Z,99.90
2019-02-07T03:21:33.017Z,99.90
2019-02-07T03:24:19.634Z,99.90
2019-02-07T03:26:58.922Z,99.90
2019-02-07T03:29:29.006Z,99.90
2019-02-07T03:32:05.240Z,99.90
2019-02-07T03:34:44.574Z,99.90
2019-02-07T03:37:14.890Z,99.90
2019-02-07T03:39:47.750Z,99.90
2019-02-07T03:42:27.058Z,99.90
2019-02-07T03:44:57.443Z,99.90
2019-02-07T03:47:44.264Z,99.90
2019-02-07T03:50:26.780Z,99.90
2019-02-07T03:53:13.399Z,99.90
2019-02-07T03:55:49.559Z,99.90
2019-02-07T03:58:31.261Z,99.90
2019-02-07T04:01:17.485Z,99.90
2019-02-07T04:03:47.978Z,99.90
2019-02-07T04:06:18.293Z,99.90
2019-02-07T04:08:54.090Z,99.90
2019-02-07T04:11:24.165Z,99.90
2019-02-07T04:14:00.292Z,99.90
2019-02-07T04:16:39.297Z,99.90
2019-02-07T04:19:24.532Z,99.90
2019-02-07T04:21:54.614Z,99.90
2019-02-07T04:24:25.075Z,99.90
2019-02-07T04:26:55.402Z,99.90
2019-02-07T04:29:28.178Z,99.90
2019-02-07T04:32:03.946Z,99.90
2019-02-07T04:34:34.371Z,99.90
2019-02-07T04:37:22.756Z,99.90
2019-02-07T04:39:59.010Z,99.90
2019-02-07T04:42:45.371Z,99.90
2019-02-07T04:45:21.219Z,99.90
2019-02-07T04:48:09.297Z,99.90
2019-02-07T04:50:51.503Z,99.90
2019-02-07T04:53:39.723Z,99.90
2019-02-07T04:56:09.793Z,99.90
2019-02-07T04:58:56.763Z,99.80
2019-02-07T05:01:35.891Z,99.80
2019-02-07T05:04:12.449Z,99.70
2019-02-07T05:06:48.337Z,99.60
2019-02-07T05:09:30.675Z,99.50
2019-02-07T05:12:04.166Z,99.30
2019-02-07T05:14:34.526Z,99.50
2019-02-07T05:17:19.648Z,99.40
2019-02-07T05:20:01.993Z,99.40
2019-02-07T05:22:43.889Z,99.30
2019-02-07T05:25:17.353Z,99.30
2019-02-07T05:28:03.786Z,99.60
2019-02-07T05:30:42.366Z,99.80
2019-02-07T05:33:28.940Z,99.90
2019-02-07T05:36:01.971Z,99.90
2019-02-07T05:38:44.000Z,99.90
2019-02-07T05:41:14.070Z,99.90
2019-02-07T05:43:56.104Z,99.90
2019-02-07T05:46:50.612Z,99.90
2019-02-07T05:49:32.671Z,99.90
2019-02-07T05:52:05.518Z,99.90
2019-02-07T05:54:52.012Z,99.90
2019-02-07T05:57:27.878Z,99.90
2019-02-07T06:00:03.660Z,99.90
2019-02-07T06:02:33.737Z,99.90
2019-02-07T06:05:18.691Z,99.90
2019-02-07T06:07:58.438Z,99.90
2019-02-07T06:10:47.209Z,99.90
2019-02-07T06:13:23.309Z,99.90
2019-02-07T06:15:59.307Z,99.90
2019-02-07T06:18:32.351Z,99.90
2019-02-07T06:21:05.403Z,99.90
2019-02-07T06:23:35.494Z,99.90
2019-02-07T06:26:17.941Z,99.90
2019-02-07T06:28:52.242Z,99.90
2019-02-07T06:31:22.802Z,99.90
2019-02-07T06:34:04.322Z,99.90
2019-02-07T06:36:37.363Z,99.90
2019-02-07T06:39:12.992Z,99.90
2019-02-07T06:41:52.058Z,99.90
2019-02-07T06:44:38.453Z,99.90
2019-02-07T06:47:13.466Z,99.90
2019-02-07T06:49:43.922Z,99.90
2019-02-07T06:52:14.098Z,99.90
2019-02-07T06:54:47.415Z,99.90
2019-02-07T06:57:20.394Z,99.90
2019-02-07T06:59:53.582Z,99.90
2019-02-07T07:02:32.955Z,99.90
2019-02-07T07:05:03.386Z,99.90
2019-02-07T07:07:39.640Z,99.90
2019-02-07T07:10:12.775Z,99.90
2019-02-07T07:13:00.878Z,99.90
2019-02-07T07:15:40.336Z,99.90
2019-02-07T07:18:10.717Z,99.90
2019-02-07T07:20:40.838Z,99.90
2019-02-07T07:23:25.628Z,99.90
2019-02-07T07:26:01.475Z,99.30
2019-02-07T07:28:37.590Z,99.30
2019-02-07T07:31:07.998Z,99.20
2019-02-07T07:33:40.922Z,99.10
2019-02-07T07:36:11.046Z,98.90
2019-02-07T07:38:41.110Z,98.40
2019-02-07T07:41:17.366Z,98.30
2019-02-07T07:44:06.102Z,97.90
2019-02-07T07:46:45.230Z,97.70
2019-02-07T07:49:15.331Z,96.90
2019-02-07T07:51:47.851Z,96.80
2019-02-07T07:54:34.060Z,96.10
2019-02-07T07:57:07.267Z,95.60
2019-02-07T07:59:54.435Z,95.80
2019-02-07T08:02:24.938Z,95.50
2019-02-07T08:04:54.962Z,94.70
2019-02-07T08:07:28.049Z,94.10
2019-02-07T08:10:14.610Z,94.20
2019-02-07T08:12:44.984Z,94.10
2019-02-07T08:15:16.326Z,93.70
2019-02-07T08:17:58.604Z,93.10
2019-02-07T08:20:37.774Z,92.90
2019-02-07T08:23:15.854Z,92.60
2019-02-07T08:25:46.117Z,91.30
2019-02-07T08:28:17.585Z,91.40
2019-02-07T08:31:06.247Z,91.10
2019-02-07T08:33:39.168Z,91.30
2019-02-07T08:36:08.536Z,91.10
2019-02-07T08:38:38.617Z,90.20
2019-02-07T08:41:20.307Z,89.10
2019-02-07T08:43:53.725Z,89.40
2019-02-07T08:46:40.085Z,87.00
2019-02-07T08:49:21.945Z,85.90
2019-02-07T08:51:57.555Z,83.60
2019-02-07T08:54:27.682Z,84.80
2019-02-07T08:57:09.991Z,82.20
2019-02-07T08:59:55.939Z,81.10
2019-02-07T09:02:31.973Z,80.50
2019-02-07T09:05:05.171Z,78.70
2019-02-07T09:07:35.596Z,76.60
2019-02-07T09:10:14.434Z,76.80
2019-02-07T09:12:47.559Z,74.80
2019-02-07T09:15:26.451Z,75.00
2019-02-07T09:18:13.420Z,74.10
2019-02-07T09:20:49.653Z,74.30
2019-02-07T09:23:31.556Z,72.80
2019-02-07T09:26:04.614Z,72.00
2019-02-07T09:28:34.751Z,70.60
2019-02-07T09:31:13.771Z,70.80
2019-02-07T09:33:52.666Z,68.60
2019-02-07T09:36:23.019Z,68.10
2019-02-07T09:39:08.174Z,67.30
2019-02-07T09:41:44.223Z,66.00
2019-02-07T09:44:14.297Z,64.40
2019-02-07T09:46:47.167Z,64.10
2019-02-07T09:49:32.522Z,64.80
2019-02-07T09:52:05.453Z,65.70
2019-02-07T09:54:38.823Z,64.60
2019-02-07T09:57:18.158Z,64.80
2019-02-07T10:00:03.674Z,63.10
2019-02-07T10:02:33.978Z,63.00
2019-02-07T10:05:06.766Z,62.10
2019-02-07T10:07:36.821Z,60.90
2019-02-07T10:10:22.130Z,60.90
2019-02-07T10:13:08.014Z,60.80
2019-02-07T10:15:38.079Z,60.10
2019-02-07T10:18:14.254Z,60.40
2019-02-07T10:20:47.106Z,62.10
2019-02-07T10:23:17.202Z,63.10
2019-02-07T10:25:51.403Z,62.60
2019-02-07T10:28:33.692Z,62.60
2019-02-07T10:31:09.610Z,62.60
2019-02-07T10:33:39.914Z,62.70
2019-02-07T10:36:16.423Z,62.30
2019-02-07T10:39:08.238Z,62.00
2019-02-07T10:41:41.381Z,61.30
2019-02-07T10:44:26.863Z,61.40
2019-02-07T10:47:02.534Z,61.00
2019-02-07T10:49:32.606Z,60.40
2019-02-07T10:52:05.473Z,58.50
2019-02-07T10:54:39.077Z,57.80
2019-02-07T10:57:09.175Z,57.60
2019-02-07T10:59:48.220Z,57.80
2019-02-07T11:02:24.070Z,56.90
2019-02-07T11:05:11.011Z,56.60
2019-02-07T11:07:53.627Z,55.80
2019-02-07T11:10:29.391Z,54.60
2019-02-07T11:13:15.991Z,53.20
2019-02-07T11:15:52.256Z,51.40
2019-02-07T11:18:28.606Z,50.10
2019-02-07T11:21:15.997Z,48.00
2019-02-07T11:23:55.195Z,46.00
2019-02-07T11:26:41.410Z,46.80
2019-02-07T11:29:17.210Z,45.20
2019-02-07T11:31:55.845Z,43.90
2019-02-07T11:34:40.902Z,43.20
2019-02-07T11:37:26.030Z,41.80
2019-02-07T11:39:56.338Z,43.00
2019-02-07T11:42:35.140Z,41.40
2019-02-07T11:45:13.122Z,42.20
2019-02-07T11:47:55.270Z,42.00
2019-02-07T11:50:28.299Z,43.30
2019-02-07T11:53:04.046Z,42.40
2019-02-07T11:55:43.101Z,41.50
2019-02-07T11:58:13.212Z,41.00
2019-02-07T12:00:55.005Z,42.30
2019-02-07T12:03:34.473Z,41.90
2019-02-07T12:06:16.594Z,41.60
2019-02-07T12:08:52.655Z,41.80
2019-02-07T12:11:38.097Z,41.60
2019-02-07T12:14:11.740Z,43.00
2019-02-07T12:16:44.968Z,42.20
2019-02-07T12:19:24.067Z,41.40
2019-02-07T12:22:01.263Z,41.00
2019-02-07T12:24:31.653Z,42.50
2019-02-07T12:27:13.773Z,43.30
2019-02-07T12:29:47.414Z,43.60
2019-02-07T12:32:26.456Z,43.10
2019-02-07T12:34:57.552Z,43.30
2019-02-07T12:37:30.535Z,43.90
2019-02-07T12:40:06.393Z,44.10
2019-02-07T12:42:38.959Z,44.20
2019-02-07T12:45:17.036Z,44.10
2019-02-07T12:47:59.160Z,43.30
2019-02-07T12:50:32.051Z,43.70
2019-02-07T12:53:02.114Z,42.80
2019-02-07T12:55:38.075Z,42.50
2019-02-07T12:58:11.206Z,43.10
2019-02-07T13:00:47.333Z,42.70
2019-02-07T13:03:23.407Z,42.10
2019-02-07T13:05:59.360Z,42.30
2019-02-07T13:08:35.636Z,44.20
2019-02-07T13:11:06.240Z,47.50
2019-02-07T13:13:36.670Z,44.90
2019-02-07T13:16:10.071Z,46.50
2019-02-07T13:18:58.312Z,46.80
2019-02-07T13:21:28.624Z,46.80
2019-02-07T13:24:01.486Z,47.00
2019-02-07T13:26:31.833Z,47.40
2019-02-07T13:29:17.190Z,48.70
2019-02-07T13:31:56.054Z,48.30
2019-02-07T13:34:42.372Z,48.30
2019-02-07T13:37:12.431Z,48.60
2019-02-07T13:39:59.152Z,49.70
2019-02-07T13:42:45.811Z,49.50
2019-02-07T13:45:29.908Z,49.40
2019-02-07T13:48:15.432Z,48.50
2019-02-07T13:50:48.638Z,48.90
2019-02-07T13:53:21.837Z,46.20
2019-02-07T13:56:00.804Z,47.70
2019-02-07T13:58:33.905Z,47.50
2019-02-07T14:01:12.626Z,48.40
2019-02-07T14:03:43.069Z,49.80
2019-02-07T14:06:13.387Z,49.50
2019-02-07T14:08:43.458Z,51.00
2019-02-07T14:11:16.645Z,50.70
2019-02-07T14:13:48.579Z,51.80
2019-02-07T14:16:24.167Z,52.40
2019-02-07T14:18:54.226Z,52.30
2019-02-07T14:21:40.754Z,52.60
2019-02-07T14:24:19.939Z,53.30
2019-02-07T14:27:06.061Z,55.00
2019-02-07T14:29:51.613Z,55.50
2019-02-07T14:32:24.770Z,56.20
2019-02-07T14:35:06.684Z,56.30
2019-02-07T14:37:39.686Z,56.60
2019-02-07T14:40:18.544Z,56.60
2019-02-07T14:42:51.315Z,57.40
2019-02-07T14:45:33.386Z,57.10
2019-02-07T14:48:01.881Z,58.30
2019-02-07T14:50:30.308Z,58.20
2019-02-07T14:52:58.726Z,58.60
2019-02-07T14:55:27.154Z,59.60
2019-02-07T14:57:55.588Z,60.80
2019-02-07T15:00:25.558Z,61.20
2019-02-07T15:02:54.119Z,63.10
2019-02-07T15:05:22.563Z,64.30
2019-02-07T15:07:51.015Z,65.80
2019-02-07T15:10:20.589Z,66.20
2019-02-07T15:12:49.377Z,70.40
2019-02-07T15:15:21.758Z,72.90
2019-02-07T15:17:50.197Z,74.80
2019-02-07T15:20:25.811Z,77.10
2019-02-07T15:22:48.994Z,77.60
2019-02-07T15:25:17.847Z,79.10
2019-02-07T15:27:46.274Z,80.00
2019-02-07T15:30:17.324Z,80.70
2019-02-07T15:32:45.957Z,82.10
2019-02-07T15:35:29.483Z,83.00
2019-02-07T15:37:58.198Z,84.50
2019-02-07T15:40:26.619Z,85.90
2019-02-07T15:42:55.446Z,87.20
2019-02-07T15:45:25.741Z,88.70
2019-02-07T15:47:54.251Z,90.00
2019-02-07T15:50:24.711Z,91.00
2019-02-07T15:52:55.623Z,91.30
2019-02-07T15:55:24.527Z,91.90
2019-02-07T15:57:53.039Z,92.20
2019-02-07T16:00:29.981Z,92.50
2019-02-07T16:03:00.062Z,92.70
2019-02-07T16:05:28.476Z,92.90
2019-02-07T16:07:56.896Z,92.90
2019-02-07T16:10:25.458Z,93.00
2019-02-07T16:12:54.099Z,92.80
2019-02-07T16:15:22.681Z,92.90
2019-02-07T16:17:51.183Z,93.00
2019-02-07T16:20:21.338Z,93.10
2019-02-07T16:22:49.763Z,93.10
2019-02-07T16:25:18.676Z,93.30
2019-02-07T16:27:47.164Z,93.50
2019-02-07T16:30:20.507Z,93.50
2019-02-07T16:32:49.045Z,93.30
2019-02-07T16:35:19.675Z,93.50
2019-02-07T16:37:48.514Z,93.50
2019-02-07T16:40:22.096Z,93.50
2019-02-07T16:42:50.963Z,94.00
2019-02-07T16:45:21.675Z,94.10
2019-02-07T16:47:50.406Z,94.30
2019-02-07T16:50:22.197Z,94.50
2019-02-07T16:52:50.891Z,95.00
2019-02-07T16:55:19.731Z,95.10
2019-02-07T16:57:48.306Z,95.30
2019-02-07T17:00:19.819Z,95.30
2019-02-07T17:02:48.475Z,96.20
2019-02-07T17:05:18.721Z,96.50
2019-02-07T17:07:47.342Z,97.50
2019-02-07T17:10:18.845Z,98.20
2019-02-07T17:12:47.269Z,99.00
2019-02-07T17:15:17.846Z,99.50
2019-02-07T17:17:46.816Z,99.80
2019-02-07T17:20:27.226Z,99.90
2019-02-07T17:22:55.732Z,99.90
2019-02-07T17:25:25.031Z,99.90
2019-02-07T17:27:53.526Z,99.90
2019-02-07T17:30:23.266Z,99.90
2019-02-07T17:32:52.603Z,99.90
2019-02-07T17:35:21.477Z,99.90
2019-02-07T17:37:50.239Z,99.90
2019-02-07T17:40:26.878Z,99.90
2019-02-07T17:42:55.374Z,99.90
2019-02-07T17:45:31.577Z,99.90
2019-02-07T17:47:59.997Z,99.90
2019-02-07T17:50:31.503Z,99.90
2019-02-07T17:53:01.178Z,99.90
2019-02-07T17:55:29.756Z,99.90
2019-02-07T17:57:58.227Z,99.90
2019-02-07T18:00:34.255Z,99.90
2019-02-07T18:03:02.743Z,99.90
2019-02-07T18:05:31.242Z,99.90
2019-02-07T18:07:59.744Z,99.90
2019-02-07T18:10:28.673Z,99.90
2019-02-07T18:12:57.405Z,99.90
2019-02-07T18:15:26.122Z,99.90
2019-02-07T18:17:54.619Z,99.90
2019-02-07T18:20:23.355Z,99.90
2019-02-07T18:22:51.839Z,99.90
2019-02-07T18:25:20.382Z,99.90
2019-02-07T18:27:48.892Z,99.90
2019-02-07T18:30:19.754Z,99.90
2019-02-07T18:32:48.888Z,99.90
2019-02-07T18:35:18.398Z,99.90
2019-02-07T18:37:47.269Z,99.90
2019-02-07T18:40:21.662Z,99.90
2019-02-07T18:42:50.091Z,99.90
2019-02-07T18:45:20.631Z,99.90
2019-02-07T18:47:49.240Z,99.90
2019-02-07T18:50:23.679Z,99.90
2019-02-07T18:52:52.179Z,99.90
2019-02-07T18:55:20.621Z,99.90
2019-02-07T18:57:49.053Z,99.90
2019-02-07T19:00:29.853Z,99.90
2019-02-07T19:02:58.280Z,99.90
2019-02-07T19:05:26.780Z,99.90
2019-02-07T19:07:55.266Z,99.90
2019-02-07T19:10:25.728Z,99.90
2019-02-07T19:12:54.294Z,99.90
2019-02-07T19:15:34.697Z,99.90
2019-02-07T19:18:03.220Z,99.90
2019-02-07T19:20:31.714Z,99.90
2019-02-07T19:23:00.198Z,99.90
2019-02-07T19:25:28.939Z,99.90
2019-02-07T19:27:57.773Z,99.90
2019-02-07T19:30:28.715Z,99.90
2019-02-07T19:32:57.479Z,99.90
2019-02-07T19:35:25.911Z,99.90
2019-02-07T19:37:56.833Z,99.90
2019-02-07T19:40:25.916Z,99.90
2019-02-07T19:42:54.957Z,99.90
2019-02-07T19:45:27.722Z,99.90
2019-02-07T19:47:56.751Z,99.90
2019-02-07T19:50:28.809Z,99.90
2019-02-07T19:52:57.470Z,99.90
2019-02-07T19:55:32.785Z,99.90
2019-02-07T19:58:01.238Z,99.90
2019-02-07T20:00:33.966Z,99.90
2019-02-07T20:03:02.416Z,99.90
2019-02-07T20:05:31.189Z,99.90
2019-02-07T20:07:59.672Z,99.90
2019-02-07T20:10:29.243Z,99.90
2019-02-07T20:12:59.023Z,99.90
2019-02-07T20:15:36.569Z,99.90
2019-02-07T20:18:07.556Z,99.90
2019-02-07T20:20:36.201Z,99.90
2019-02-07T20:23:04.857Z,99.90
2019-02-07T20:25:33.638Z,99.90
2019-02-07T20:28:02.394Z,99.90
2019-02-07T20:30:39.293Z,99.90
2019-02-07T20:33:08.639Z,99.90
2019-02-07T20:35:37.304Z,99.90
2019-02-07T20:38:06.918Z,99.90
2019-02-07T20:40:35.717Z,99.90
2019-02-07T20:43:05.243Z,99.90
2019-02-07T20:45:33.680Z,99.90
2019-02-07T20:48:02.108Z,99.90
2019-02-07T20:50:30.891Z,99.90
2019-02-07T20:52:59.399Z,99.90
2019-02-07T20:55:28.086Z,99.90
2019-02-07T20:57:56.730Z,99.90
2019-02-07T21:00:36.877Z,99.90
2019-02-07T21:03:05.882Z,99.90
2019-02-07T21:05:35.211Z,99.90
2019-02-07T21:08:04.054Z,99.90
2019-02-07T21:10:37.257Z,99.90
2019-02-07T21:13:06.323Z,99.90
2019-02-07T21:15:34.916Z,99.90
2019-02-07T21:18:03.402Z,99.90
2019-02-07T21:20:32.467Z,99.90
2019-02-07T21:23:01.456Z,99.90
2019-02-07T21:25:35.541Z,99.90
2019-02-07T21:28:05.177Z,99.90
2019-02-07T21:30:33.842Z,99.90
2019-02-07T21:33:02.258Z,99.90
2019-02-07T21:35:30.681Z,99.90
2019-02-07T21:37:59.093Z,99.90
2019-02-07T21:40:32.149Z,99.90
2019-02-07T21:43:00.800Z,99.90
2019-02-07T21:45:29.708Z,99.90
2019-02-07T21:47:59.672Z,99.90
2019-02-07T21:50:31.937Z,99.90
2019-02-07T21:53:00.347Z,99.90
2019-02-07T21:55:34.419Z,99.90
2019-02-07T21:58:03.070Z,99.90
2019-02-07T22:00:37.343Z,99.90
2019-02-07T22:03:08.053Z,99.90
2019-02-07T22:05:36.478Z,99.90
2019-02-07T22:08:06.229Z,99.90
2019-02-07T22:10:35.001Z,99.90
2019-02-07T22:13:03.625Z,99.90
2019-02-07T22:15:32.437Z,99.90
2019-02-07T22:18:00.853Z,99.90
2019-02-07T22:20:30.575Z,99.90
2019-02-07T22:22:59.526Z,99.90
2019-02-07T22:25:28.054Z,99.90
2019-02-07T22:27:56.465Z,99.90
2019-02-07T22:30:33.861Z,99.90
2019-02-07T22:33:02.421Z,99.90
2019-02-07T22:35:31.078Z,99.90
2019-02-07T22:38:00.576Z,99.90
2019-02-07T22:40:29.070Z,99.90
2019-02-07T22:42:59.121Z,99.90
2019-02-07T22:45:29.201Z,99.90
2019-02-07T22:47:57.629Z,99.90
2019-02-07T22:50:28.570Z,99.90
2019-02-07T22:52:57.468Z,99.90
2019-02-07T22:55:26.001Z,99.90
2019-02-07T22:57:54.550Z,99.90
2019-02-07T23:00:34.203Z,99.90
2019-02-07T23:03:04.869Z,99.90
2019-02-07T23:05:33.285Z,99.90
2019-02-07T23:08:01.723Z,99.90
2019-02-07T23:10:30.132Z,99.90
2019-02-07T23:13:00.745Z,99.90
2019-02-07T23:15:29.332Z,99.90
2019-02-07T23:17:57.764Z,99.90
2019-02-07T23:20:26.611Z,99.90
2019-02-07T23:22:55.041Z,99.90
2019-02-07T23:25:23.730Z,99.90
2019-02-07T23:27:52.374Z,99.90
2019-02-07T23:30:21.057Z,99.90
2019-02-07T23:32:49.592Z,99.90
2019-02-07T23:35:18.267Z,99.90
2019-02-07T23:37:46.704Z,99.90
2019-02-07T23:40:19.817Z,99.90
2019-02-07T23:42:48.690Z,99.90
2019-02-07T23:45:22.146Z,99.90
2019-02-07T23:47:50.573Z,99.90
2019-02-07T23:50:19.930Z,99.90
2019-02-07T23:52:48.638Z,99.90
2019-02-07T23:55:17.435Z,99.90
2019-02-07T23:57:46.813Z,99.90
